Главная страница
METAR-TAF:

METAR-TAF

Аэропорты :

Яп

Острова Яп, Микронезия

широта: 09-29N, долгота: 138-05E, высота над уровнем моря: 28 м

Текущие метеонаблюдения

Эта сводка был подготовлена 1 час и 2 минут назад, в 10:51 UTC
Ветер 3 Узел переменных направлений
Температура 28°C
Влажность 84%
Давление 1012 hPa
Видимость: 19.3 км
небольшая облачность на высоте 1600 фута
Рассеянная облачность на высоте 30000 фута

METAR: PTYA 211051Z VRB03KT 12SM FEW016 BKN300 28/25 A2987 RMK SLP115 T02770247

Время: 21:53 (11:53 UTC)

Прогноз

Эта сводка был подготовлена 19 минут назад, в 11:34 UTC
Прогноз действительный с 21-го 12 UTC до 22-го 12 UTC
Ветер 3 Узел переменных направлений
Видимость: 10 км
небольшая облачность на высоте 1600 фута
Отдельные облака на высоте 13000 фута
ливни в окрестностях

TAF: PTYA 211134Z 2112/2212 VRB03KT P6SM VCSH FEW016 SCT130

Метеонаблюдения и прогнозы для более 4000 аэропортов (сводки METAR и TAF).

Имеющиеся станции представлены на карте желтыми и красными точками.

Чтобы увидеть название станции, наведите на нее мышь.

Затем щелкните, чтобы увидеть метеонаблюдения и метеопрогнозы.

Управление картой: чтобы увеличить масштаб, щелкните зеленые кнопки с черным крестиком; чтобы уменьшить масштаб, щелкните зеленую кнопку с тире; для просмотра соседних карт щелкайте зеленые стрелки.


METAR-TAF: